Golders Green, United Kingdom
Current Conditions -  °F | °C
As of 10:50 AM on Friday 28 Nov 2014 (Local Time) from EGWU Reporting Station
Haze Haze  
Wind Chill: 52°   Ceiling: 700
Heat Index: 52°   Visibility: 4mi
Dew Point: 48°   Wind: 15mph
Humidity: 88%   Direction: 110°ESE
Pressure: 29.59"   Gusts: NA
Location:  51.58°N, 0.2°W
Report Text: EGWU 281050Z 11013KT 7000 HZ BKN007 11/09 Q1002 BECMG 9999 NSW
Loading
Personal Weather Stations






























Interactive Weather Map New forecast layout! Learn more

10-Day Weather Forecast

Advertisements
Track Severe Weather on mobile